sensor_id;sensor_type;location;lat;lon;timestamp;P1;durP1;ratioP1;P2;durP2;ratioP2
5900;SDS011;2976;49.764;9.796;2022-11-20T00:02:01;55.53;;;24.83;;
5900;SDS011;2976;49.764;9.796;2022-11-20T00:04:27;56.67;;;23.13;;
5900;SDS011;2976;49.764;9.796;2022-11-20T00:06:52;52.87;;;23.70;;
5900;SDS011;2976;49.764;9.796;2022-11-20T00:09:18;59.10;;;24.30;;
5900;SDS011;2976;49.764;9.796;2022-11-20T00:11:43;52.23;;;22.90;;
5900;SDS011;2976;49.764;9.796;2022-11-20T00:14:09;56.27;;;24.17;;
5900;SDS011;2976;49.764;9.796;2022-11-20T00:16:35;59.17;;;24.73;;
5900;SDS011;2976;49.764;9.796;2022-11-20T00:19:00;50.97;;;23.70;;
5900;SDS011;2976;49.764;9.796;2022-11-20T00:21:27;62.63;;;24.63;;
5900;SDS011;2976;49.764;9.796;2022-11-20T00:23:54;49.00;;;23.57;;
5900;SDS011;2976;49.764;9.796;2022-11-20T00:26:21;55.53;;;22.67;;
5900;SDS011;2976;49.764;9.796;2022-11-20T00:28:49;56.20;;;23.33;;
5900;SDS011;2976;49.764;9.796;2022-11-20T00:31:16;62.63;;;23.37;;
5900;SDS011;2976;49.764;9.796;2022-11-20T00:33:42;55.73;;;22.27;;
5900;SDS011;2976;49.764;9.796;2022-11-20T00:36:13;54.07;;;22.67;;
5900;SDS011;2976;49.764;9.796;2022-11-20T00:38:40;58.57;;;24.80;;
5900;SDS011;2976;49.764;9.796;2022-11-20T00:41:07;53.03;;;25.20;;
5900;SDS011;2976;49.764;9.796;2022-11-20T00:43:34;60.40;;;24.20;;
5900;SDS011;2976;49.764;9.796;2022-11-20T00:46:00;50.20;;;20.93;;
5900;SDS011;2976;49.764;9.796;2022-11-20T00:48:28;61.37;;;23.07;;
5900;SDS011;2976;49.764;9.796;2022-11-20T00:50:54;57.07;;;24.10;;
5900;SDS011;2976;49.764;9.796;2022-11-20T00:53:20;70.40;;;24.77;;
5900;SDS011;2976;49.764;9.796;2022-11-20T00:55:55;53.53;;;23.90;;
5900;SDS011;2976;49.764;9.796;2022-11-20T00:58:28;57.17;;;24.97;;
5900;SDS011;2976;49.764;9.796;2022-11-20T01:00:59;59.70;;;24.67;;
5900;SDS011;2976;49.764;9.796;2022-11-20T01:03:33;53.27;;;23.23;;
5900;SDS011;2976;49.764;9.796;2022-11-20T01:06:03;57.03;;;23.30;;
5900;SDS011;2976;49.764;9.796;2022-11-20T01:08:31;65.60;;;24.57;;
5900;SDS011;2976;49.764;9.796;2022-11-20T01:10:59;54.10;;;22.17;;
5900;SDS011;2976;49.764;9.796;2022-11-20T01:13:28;58.90;;;23.40;;
5900;SDS011;2976;49.764;9.796;2022-11-20T01:18:34;57.30;;;24.17;;
5900;SDS011;2976;49.764;9.796;2022-11-20T01:21:02;53.00;;;22.93;;
5900;SDS011;2976;49.764;9.796;2022-11-20T01:23:30;65.23;;;26.63;;
5900;SDS011;2976;49.764;9.796;2022-11-20T01:25:58;61.73;;;26.30;;
5900;SDS011;2976;49.764;9.796;2022-11-20T01:28:26;66.80;;;26.47;;
5900;SDS011;2976;49.764;9.796;2022-11-20T01:30:52;60.57;;;25.13;;
5900;SDS011;2976;49.764;9.796;2022-11-20T01:33:18;67.30;;;26.97;;
5900;SDS011;2976;49.764;9.796;2022-11-20T01:35:43;67.50;;;24.27;;
5900;SDS011;2976;49.764;9.796;2022-11-20T01:38:09;64.17;;;25.73;;
5900;SDS011;2976;49.764;9.796;2022-11-20T01:40:34;51.63;;;22.77;;
5900;SDS011;2976;49.764;9.796;2022-11-20T01:43:13;72.37;;;26.50;;
5900;SDS011;2976;49.764;9.796;2022-11-20T01:48:30;63.70;;;25.77;;
5900;SDS011;2976;49.764;9.796;2022-11-20T01:51:27;62.17;;;23.73;;
5900;SDS011;2976;49.764;9.796;2022-11-20T01:53:59;62.27;;;24.00;;
5900;SDS011;2976;49.764;9.796;2022-11-20T01:56:28;65.40;;;25.17;;
5900;SDS011;2976;49.764;9.796;2022-11-20T01:58:58;54.70;;;25.00;;
5900;SDS011;2976;49.764;9.796;2022-11-20T02:01:26;58.47;;;24.10;;
5900;SDS011;2976;49.764;9.796;2022-11-20T02:03:52;67.00;;;26.10;;
5900;SDS011;2976;49.764;9.796;2022-11-20T02:06:39;64.77;;;24.37;;
5900;SDS011;2976;49.764;9.796;2022-11-20T02:09:09;62.70;;;24.90;;
5900;SDS011;2976;49.764;9.796;2022-11-20T02:11:34;58.87;;;24.27;;
5900;SDS011;2976;49.764;9.796;2022-11-20T02:14:00;57.97;;;24.80;;
5900;SDS011;2976;49.764;9.796;2022-11-20T02:16:27;68.77;;;26.70;;
5900;SDS011;2976;49.764;9.796;2022-11-20T02:18:56;54.30;;;23.33;;
5900;SDS011;2976;49.764;9.796;2022-11-20T02:23:55;56.60;;;24.20;;
5900;SDS011;2976;49.764;9.796;2022-11-20T02:26:33;58.73;;;24.50;;
5900;SDS011;2976;49.764;9.796;2022-11-20T02:29:03;65.00;;;26.03;;
5900;SDS011;2976;49.764;9.796;2022-11-20T02:31:28;62.93;;;24.77;;
5900;SDS011;2976;49.764;9.796;2022-11-20T02:33:58;53.90;;;23.33;;
5900;SDS011;2976;49.764;9.796;2022-11-20T02:36:24;66.33;;;26.97;;
5900;SDS011;2976;49.764;9.796;2022-11-20T02:38:52;65.17;;;25.10;;
5900;SDS011;2976;49.764;9.796;2022-11-20T02:41:18;58.03;;;24.60;;
5900;SDS011;2976;49.764;9.796;2022-11-20T02:43:44;66.30;;;27.03;;
5900;SDS011;2976;49.764;9.796;2022-11-20T02:46:10;69.87;;;26.40;;
5900;SDS011;2976;49.764;9.796;2022-11-20T02:48:35;56.70;;;24.17;;
5900;SDS011;2976;49.764;9.796;2022-11-20T02:51:02;59.20;;;25.60;;
5900;SDS011;2976;49.764;9.796;2022-11-20T02:53:27;57.37;;;23.47;;
5900;SDS011;2976;49.764;9.796;2022-11-20T02:55:53;61.23;;;23.30;;
5900;SDS011;2976;49.764;9.796;2022-11-20T02:58:18;72.03;;;25.07;;
5900;SDS011;2976;49.764;9.796;2022-11-20T03:00:44;51.33;;;23.17;;
5900;SDS011;2976;49.764;9.796;2022-11-20T03:03:09;55.13;;;23.70;;
5900;SDS011;2976;49.764;9.796;2022-11-20T03:05:35;60.47;;;25.50;;
5900;SDS011;2976;49.764;9.796;2022-11-20T03:08:00;50.77;;;23.10;;
5900;SDS011;2976;49.764;9.796;2022-11-20T03:10:26;60.03;;;25.13;;
5900;SDS011;2976;49.764;9.796;2022-11-20T03:12:55;58.57;;;24.67;;
5900;SDS011;2976;49.764;9.796;2022-11-20T03:15:21;70.03;;;25.10;;
5900;SDS011;2976;49.764;9.796;2022-11-20T03:17:48;63.27;;;23.43;;
5900;SDS011;2976;49.764;9.796;2022-11-20T03:20:13;51.97;;;22.70;;
5900;SDS011;2976;49.764;9.796;2022-11-20T03:22:39;57.17;;;23.13;;
5900;SDS011;2976;49.764;9.796;2022-11-20T03:25:04;64.30;;;24.87;;
5900;SDS011;2976;49.764;9.796;2022-11-20T03:27:33;57.83;;;24.90;;
5900;SDS011;2976;49.764;9.796;2022-11-20T03:29:59;57.23;;;23.87;;
5900;SDS011;2976;49.764;9.796;2022-11-20T03:32:25;56.40;;;24.03;;
5900;SDS011;2976;49.764;9.796;2022-11-20T03:34:51;55.60;;;23.03;;
5900;SDS011;2976;49.764;9.796;2022-11-20T03:37:16;56.27;;;22.93;;
5900;SDS011;2976;49.764;9.796;2022-11-20T03:39:42;69.70;;;25.40;;
5900;SDS011;2976;49.764;9.796;2022-11-20T03:42:08;62.50;;;23.03;;
5900;SDS011;2976;49.764;9.796;2022-11-20T03:44:53;58.77;;;23.07;;
5900;SDS011;2976;49.764;9.796;2022-11-20T03:47:19;56.30;;;23.33;;
5900;SDS011;2976;49.764;9.796;2022-11-20T03:49:45;57.47;;;23.47;;
5900;SDS011;2976;49.764;9.796;2022-11-20T03:52:10;56.93;;;23.00;;
5900;SDS011;2976;49.764;9.796;2022-11-20T03:54:36;59.10;;;22.30;;
5900;SDS011;2976;49.764;9.796;2022-11-20T03:57:01;55.40;;;23.60;;
5900;SDS011;2976;49.764;9.796;2022-11-20T03:59:27;57.30;;;23.40;;
5900;SDS011;2976;49.764;9.796;2022-11-20T04:01:52;55.27;;;22.57;;
5900;SDS011;2976;49.764;9.796;2022-11-20T04:04:18;59.50;;;24.50;;
5900;SDS011;2976;49.764;9.796;2022-11-20T04:06:43;49.43;;;22.30;;
5900;SDS011;2976;49.764;9.796;2022-11-20T04:09:09;58.00;;;25.20;;
5900;SDS011;2976;49.764;9.796;2022-11-20T04:11:36;55.90;;;24.17;;
5900;SDS011;2976;49.764;9.796;2022-11-20T04:14:04;56.63;;;23.53;;
5900;SDS011;2976;49.764;9.796;2022-11-20T04:16:32;55.07;;;23.70;;
5900;SDS011;2976;49.764;9.796;2022-11-20T04:19:00;47.77;;;22.00;;
5900;SDS011;2976;49.764;9.796;2022-11-20T04:21:28;53.03;;;23.17;;
5900;SDS011;2976;49.764;9.796;2022-11-20T04:23:54;63.53;;;25.30;;
5900;SDS011;2976;49.764;9.796;2022-11-20T04:26:21;120.13;;;42.83;;
5900;SDS011;2976;49.764;9.796;2022-11-20T04:28:49;60.57;;;27.10;;
5900;SDS011;2976;49.764;9.796;2022-11-20T04:31:15;49.50;;;22.30;;
5900;SDS011;2976;49.764;9.796;2022-11-20T04:33:43;50.20;;;22.63;;
5900;SDS011;2976;49.764;9.796;2022-11-20T04:36:13;53.03;;;23.67;;
5900;SDS011;2976;49.764;9.796;2022-11-20T04:38:46;52.17;;;21.80;;
5900;SDS011;2976;49.764;9.796;2022-11-20T04:41:16;53.80;;;21.80;;
5900;SDS011;2976;49.764;9.796;2022-11-20T04:43:49;50.43;;;19.77;;
5900;SDS011;2976;49.764;9.796;2022-11-20T04:46:17;44.30;;;20.20;;
5900;SDS011;2976;49.764;9.796;2022-11-20T04:48:43;38.63;;;18.43;;
5900;SDS011;2976;49.764;9.796;2022-11-20T04:51:09;43.53;;;22.37;;
5900;SDS011;2976;49.764;9.796;2022-11-20T04:53:35;43.70;;;19.70;;
5900;SDS011;2976;49.764;9.796;2022-11-20T04:56:01;42.23;;;18.57;;
5900;SDS011;2976;49.764;9.796;2022-11-20T04:58:28;46.43;;;18.87;;
5900;SDS011;2976;49.764;9.796;2022-11-20T05:01:00;46.87;;;19.27;;
5900;SDS011;2976;49.764;9.796;2022-11-20T05:03:30;42.93;;;18.90;;
5900;SDS011;2976;49.764;9.796;2022-11-20T05:05:56;43.13;;;18.90;;
5900;SDS011;2976;49.764;9.796;2022-11-20T05:08:25;49.20;;;20.00;;
5900;SDS011;2976;49.764;9.796;2022-11-20T05:10:50;45.60;;;20.33;;
5900;SDS011;2976;49.764;9.796;2022-11-20T05:13:16;45.40;;;18.10;;
5900;SDS011;2976;49.764;9.796;2022-11-20T05:15:41;43.00;;;17.83;;
5900;SDS011;2976;49.764;9.796;2022-11-20T05:18:07;46.33;;;17.77;;
5900;SDS011;2976;49.764;9.796;2022-11-20T05:20:32;45.30;;;17.83;;
5900;SDS011;2976;49.764;9.796;2022-11-20T05:22:58;40.20;;;18.13;;
5900;SDS011;2976;49.764;9.796;2022-11-20T05:25:23;38.20;;;16.10;;
5900;SDS011;2976;49.764;9.796;2022-11-20T05:27:49;38.33;;;16.53;;
5900;SDS011;2976;49.764;9.796;2022-11-20T05:30:15;42.00;;;17.33;;
5900;SDS011;2976;49.764;9.796;2022-11-20T05:32:40;43.43;;;18.30;;
5900;SDS011;2976;49.764;9.796;2022-11-20T05:35:06;40.57;;;17.97;;
5900;SDS011;2976;49.764;9.796;2022-11-20T05:37:32;40.73;;;17.73;;
5900;SDS011;2976;49.764;9.796;2022-11-20T05:39:57;39.40;;;17.60;;
5900;SDS011;2976;49.764;9.796;2022-11-20T05:42:23;42.13;;;16.87;;
5900;SDS011;2976;49.764;9.796;2022-11-20T05:45:01;36.80;;;17.10;;
5900;SDS011;2976;49.764;9.796;2022-11-20T05:47:30;36.50;;;16.37;;
5900;SDS011;2976;49.764;9.796;2022-11-20T05:49:57;36.93;;;16.60;;
5900;SDS011;2976;49.764;9.796;2022-11-20T05:52:22;37.40;;;18.17;;
5900;SDS011;2976;49.764;9.796;2022-11-20T05:54:48;39.13;;;16.77;;
5900;SDS011;2976;49.764;9.796;2022-11-20T05:57:13;36.73;;;16.30;;
5900;SDS011;2976;49.764;9.796;2022-11-20T05:59:39;38.53;;;16.70;;
5900;SDS011;2976;49.764;9.796;2022-11-20T06:02:05;37.17;;;17.47;;
5900;SDS011;2976;49.764;9.796;2022-11-20T06:04:30;41.77;;;17.90;;
5900;SDS011;2976;49.764;9.796;2022-11-20T06:06:56;46.87;;;19.10;;
5900;SDS011;2976;49.764;9.796;2022-11-20T06:09:21;43.00;;;18.10;;
5900;SDS011;2976;49.764;9.796;2022-11-20T06:11:47;41.50;;;18.27;;
5900;SDS011;2976;49.764;9.796;2022-11-20T06:14:12;42.03;;;19.10;;
5900;SDS011;2976;49.764;9.796;2022-11-20T06:16:38;42.83;;;18.67;;
5900;SDS011;2976;49.764;9.796;2022-11-20T06:19:03;47.00;;;19.83;;
5900;SDS011;2976;49.764;9.796;2022-11-20T06:21:29;37.57;;;16.70;;
5900;SDS011;2976;49.764;9.796;2022-11-20T06:23:54;42.30;;;19.37;;
5900;SDS011;2976;49.764;9.796;2022-11-20T06:26:23;51.83;;;18.27;;
5900;SDS011;2976;49.764;9.796;2022-11-20T06:28:51;51.57;;;18.07;;
5900;SDS011;2976;49.764;9.796;2022-11-20T06:31:18;46.60;;;19.17;;
5900;SDS011;2976;49.764;9.796;2022-11-20T06:33:46;42.47;;;18.13;;
5900;SDS011;2976;49.764;9.796;2022-11-20T06:36:13;41.53;;;18.90;;
5900;SDS011;2976;49.764;9.796;2022-11-20T06:38:40;51.93;;;19.17;;
5900;SDS011;2976;49.764;9.796;2022-11-20T06:41:10;44.90;;;18.63;;
5900;SDS011;2976;49.764;9.796;2022-11-20T06:43:38;41.63;;;17.83;;
5900;SDS011;2976;49.764;9.796;2022-11-20T06:46:03;54.63;;;20.10;;
5900;SDS011;2976;49.764;9.796;2022-11-20T06:48:29;49.77;;;21.60;;
5900;SDS011;2976;49.764;9.796;2022-11-20T06:50:55;49.10;;;20.80;;
5900;SDS011;2976;49.764;9.796;2022-11-20T06:53:22;54.77;;;20.50;;
5900;SDS011;2976;49.764;9.796;2022-11-20T06:55:50;46.67;;;20.00;;
5900;SDS011;2976;49.764;9.796;2022-11-20T06:58:16;44.17;;;18.73;;
5900;SDS011;2976;49.764;9.796;2022-11-20T07:00:42;49.77;;;18.40;;
5900;SDS011;2976;49.764;9.796;2022-11-20T07:03:09;49.63;;;19.87;;
5900;SDS011;2976;49.764;9.796;2022-11-20T07:05:36;51.10;;;22.17;;
5900;SDS011;2976;49.764;9.796;2022-11-20T07:08:03;89.93;;;30.20;;
5900;SDS011;2976;49.764;9.796;2022-11-20T07:10:29;46.33;;;19.90;;
5900;SDS011;2976;49.764;9.796;2022-11-20T07:12:55;53.27;;;21.17;;
5900;SDS011;2976;49.764;9.796;2022-11-20T07:15:21;57.63;;;22.13;;
5900;SDS011;2976;49.764;9.796;2022-11-20T07:17:48;43.67;;;18.17;;
5900;SDS011;2976;49.764;9.796;2022-11-20T07:20:14;54.10;;;29.27;;
5900;SDS011;2976;49.764;9.796;2022-11-20T07:22:40;61.10;;;27.73;;
5900;SDS011;2976;49.764;9.796;2022-11-20T07:25:06;61.47;;;24.20;;
5900;SDS011;2976;49.764;9.796;2022-11-20T07:27:32;52.23;;;21.60;;
5900;SDS011;2976;49.764;9.796;2022-11-20T07:29:57;50.87;;;23.10;;
5900;SDS011;2976;49.764;9.796;2022-11-20T07:32:23;56.77;;;23.87;;
5900;SDS011;2976;49.764;9.796;2022-11-20T07:34:50;54.67;;;22.70;;
5900;SDS011;2976;49.764;9.796;2022-11-20T07:37:15;64.53;;;22.20;;
5900;SDS011;2976;49.764;9.796;2022-11-20T07:39:41;52.50;;;21.17;;
5900;SDS011;2976;49.764;9.796;2022-11-20T07:42:07;69.93;;;23.30;;
5900;SDS011;2976;49.764;9.796;2022-11-20T07:44:33;50.97;;;23.60;;
5900;SDS011;2976;49.764;9.796;2022-11-20T07:46:59;69.50;;;22.50;;
5900;SDS011;2976;49.764;9.796;2022-11-20T07:49:25;52.30;;;21.63;;
5900;SDS011;2976;49.764;9.796;2022-11-20T07:51:50;54.07;;;20.67;;
5900;SDS011;2976;49.764;9.796;2022-11-20T07:54:18;50.37;;;20.70;;
5900;SDS011;2976;49.764;9.796;2022-11-20T07:56:44;44.67;;;18.77;;
5900;SDS011;2976;49.764;9.796;2022-11-20T07:59:10;42.20;;;16.27;;
5900;SDS011;2976;49.764;9.796;2022-11-20T08:01:36;35.40;;;16.80;;
5900;SDS011;2976;49.764;9.796;2022-11-20T08:04:02;39.10;;;18.40;;
5900;SDS011;2976;49.764;9.796;2022-11-20T08:06:28;40.17;;;18.40;;
5900;SDS011;2976;49.764;9.796;2022-11-20T08:08:53;47.83;;;18.60;;
5900;SDS011;2976;49.764;9.796;2022-11-20T08:11:19;42.47;;;18.00;;
5900;SDS011;2976;49.764;9.796;2022-11-20T08:14:03;45.00;;;18.73;;
5900;SDS011;2976;49.764;9.796;2022-11-20T08:16:38;49.33;;;21.10;;
5900;SDS011;2976;49.764;9.796;2022-11-20T08:19:11;46.33;;;19.67;;
5900;SDS011;2976;49.764;9.796;2022-11-20T08:21:38;44.80;;;20.00;;
5900;SDS011;2976;49.764;9.796;2022-11-20T08:24:03;42.77;;;18.40;;
5900;SDS011;2976;49.764;9.796;2022-11-20T08:26:29;42.67;;;18.47;;
5900;SDS011;2976;49.764;9.796;2022-11-20T08:28:55;41.93;;;16.87;;
5900;SDS011;2976;49.764;9.796;2022-11-20T08:31:25;44.53;;;19.00;;
5900;SDS011;2976;49.764;9.796;2022-11-20T08:33:51;38.20;;;17.20;;
5900;SDS011;2976;49.764;9.796;2022-11-20T08:36:19;38.53;;;16.60;;
5900;SDS011;2976;49.764;9.796;2022-11-20T08:38:47;45.40;;;17.87;;
5900;SDS011;2976;49.764;9.796;2022-11-20T08:41:16;37.93;;;16.37;;
5900;SDS011;2976;49.764;9.796;2022-11-20T08:43:53;44.70;;;17.50;;
5900;SDS011;2976;49.764;9.796;2022-11-20T08:46:20;48.73;;;19.93;;
5900;SDS011;2976;49.764;9.796;2022-11-20T08:48:47;47.23;;;22.73;;
5900;SDS011;2976;49.764;9.796;2022-11-20T08:51:12;54.53;;;21.20;;
5900;SDS011;2976;49.764;9.796;2022-11-20T08:53:39;51.00;;;22.30;;
5900;SDS011;2976;49.764;9.796;2022-11-20T08:56:05;46.60;;;20.60;;
5900;SDS011;2976;49.764;9.796;2022-11-20T08:58:30;50.13;;;21.57;;
5900;SDS011;2976;49.764;9.796;2022-11-20T09:00:56;44.73;;;21.43;;
5900;SDS011;2976;49.764;9.796;2022-11-20T09:03:22;42.77;;;21.07;;
5900;SDS011;2976;49.764;9.796;2022-11-20T09:05:47;44.10;;;20.53;;
5900;SDS011;2976;49.764;9.796;2022-11-20T09:08:13;50.60;;;23.20;;
5900;SDS011;2976;49.764;9.796;2022-11-20T09:10:38;35.10;;;18.07;;
5900;SDS011;2976;49.764;9.796;2022-11-20T09:13:07;48.67;;;19.40;;
5900;SDS011;2976;49.764;9.796;2022-11-20T09:15:32;38.93;;;18.30;;
5900;SDS011;2976;49.764;9.796;2022-11-20T09:17:59;36.57;;;17.03;;
5900;SDS011;2976;49.764;9.796;2022-11-20T09:20:27;38.60;;;18.33;;
5900;SDS011;2976;49.764;9.796;2022-11-20T09:22:53;42.20;;;16.90;;
5900;SDS011;2976;49.764;9.796;2022-11-20T09:25:19;37.60;;;17.07;;
5900;SDS011;2976;49.764;9.796;2022-11-20T09:27:45;38.07;;;16.97;;
5900;SDS011;2976;49.764;9.796;2022-11-20T09:30:11;34.70;;;17.00;;
5900;SDS011;2976;49.764;9.796;2022-11-20T09:32:38;39.80;;;17.83;;
5900;SDS011;2976;49.764;9.796;2022-11-20T09:35:04;34.77;;;17.93;;
5900;SDS011;2976;49.764;9.796;2022-11-20T09:37:30;40.10;;;17.27;;
5900;SDS011;2976;49.764;9.796;2022-11-20T09:39:56;45.70;;;19.13;;
5900;SDS011;2976;49.764;9.796;2022-11-20T09:42:27;45.13;;;18.13;;
5900;SDS011;2976;49.764;9.796;2022-11-20T09:45:18;42.33;;;17.30;;
5900;SDS011;2976;49.764;9.796;2022-11-20T09:50:40;38.33;;;17.20;;
5900;SDS011;2976;49.764;9.796;2022-11-20T09:53:30;45.90;;;16.27;;
5900;SDS011;2976;49.764;9.796;2022-11-20T09:55:56;33.57;;;15.60;;
5900;SDS011;2976;49.764;9.796;2022-11-20T10:00:55;41.63;;;18.30;;
5900;SDS011;2976;49.764;9.796;2022-11-20T10:03:39;43.73;;;16.23;;
5900;SDS011;2976;49.764;9.796;2022-11-20T10:07:27;41.20;;;16.53;;
5900;SDS011;2976;49.764;9.796;2022-11-20T10:09:42;36.37;;;15.57;;
5900;SDS011;2976;49.764;9.796;2022-11-20T10:17:31;31.77;;;13.97;;
5900;SDS011;2976;49.764;9.796;2022-11-20T10:20:14;28.83;;;12.30;;
5900;SDS011;2976;49.764;9.796;2022-11-20T10:25:49;28.00;;;11.33;;
5900;SDS011;2976;49.764;9.796;2022-11-20T10:31:17;29.47;;;11.73;;
5900;SDS011;2976;49.764;9.796;2022-11-20T10:33:55;25.03;;;10.63;;
5900;SDS011;2976;49.764;9.796;2022-11-20T10:36:26;22.10;;;11.07;;
5900;SDS011;2976;49.764;9.796;2022-11-20T10:38:58;24.63;;;12.40;;
5900;SDS011;2976;49.764;9.796;2022-11-20T10:41:32;23.37;;;11.17;;
5900;SDS011;2976;49.764;9.796;2022-11-20T10:44:05;19.67;;;9.80;;
5900;SDS011;2976;49.764;9.796;2022-11-20T10:47:01;18.67;;;10.47;;
5900;SDS011;2976;49.764;9.796;2022-11-20T10:49:28;16.00;;;9.77;;
5900;SDS011;2976;49.764;9.796;2022-11-20T10:52:07;19.30;;;11.03;;
5900;SDS011;2976;49.764;9.796;2022-11-20T10:54:51;19.83;;;10.53;;
5900;SDS011;2976;49.764;9.796;2022-11-20T11:00:10;17.47;;;8.70;;
5900;SDS011;2976;49.764;9.796;2022-11-20T11:02:44;17.27;;;9.23;;
5900;SDS011;2976;49.764;9.796;2022-11-20T11:05:23;13.33;;;7.23;;
5900;SDS011;2976;49.764;9.796;2022-11-20T11:07:56;13.63;;;8.07;;
5900;SDS011;2976;49.764;9.796;2022-11-20T11:10:24;18.93;;;9.03;;
5900;SDS011;2976;49.764;9.796;2022-11-20T11:13:01;11.57;;;7.53;;
5900;SDS011;2976;49.764;9.796;2022-11-20T11:15:28;11.60;;;6.90;;
5900;SDS011;2976;49.764;9.796;2022-11-20T11:18:01;10.67;;;6.50;;
5900;SDS011;2976;49.764;9.796;2022-11-20T11:20:28;13.23;;;7.53;;
5900;SDS011;2976;49.764;9.796;2022-11-20T11:22:54;10.97;;;6.90;;
5900;SDS011;2976;49.764;9.796;2022-11-20T11:28:04;12.53;;;7.00;;
5900;SDS011;2976;49.764;9.796;2022-11-20T11:30:44;14.80;;;8.07;;
5900;SDS011;2976;49.764;9.796;2022-11-20T11:33:21;14.47;;;7.50;;
5900;SDS011;2976;49.764;9.796;2022-11-20T11:35:51;11.80;;;6.70;;
5900;SDS011;2976;49.764;9.796;2022-11-20T11:38:36;11.40;;;7.30;;
5900;SDS011;2976;49.764;9.796;2022-11-20T11:41:09;13.77;;;7.70;;
5900;SDS011;2976;49.764;9.796;2022-11-20T11:43:48;14.40;;;8.13;;
5900;SDS011;2976;49.764;9.796;2022-11-20T11:46:35;11.37;;;7.10;;
5900;SDS011;2976;49.764;9.796;2022-11-20T11:56:49;18.70;;;8.70;;
5900;SDS011;2976;49.764;9.796;2022-11-20T11:59:21;15.90;;;8.37;;
5900;SDS011;2976;49.764;9.796;2022-11-20T12:02:12;15.73;;;7.17;;
5900;SDS011;2976;49.764;9.796;2022-11-20T12:04:54;16.43;;;8.53;;
5900;SDS011;2976;49.764;9.796;2022-11-20T12:07:42;18.83;;;8.70;;
5900;SDS011;2976;49.764;9.796;2022-11-20T12:12:56;16.63;;;9.37;;
5900;SDS011;2976;49.764;9.796;2022-11-20T12:15:39;19.87;;;10.90;;
5900;SDS011;2976;49.764;9.796;2022-11-20T12:18:11;18.57;;;8.70;;
5900;SDS011;2976;49.764;9.796;2022-11-20T12:20:42;19.70;;;9.37;;
5900;SDS011;2976;49.764;9.796;2022-11-20T12:23:26;15.97;;;8.90;;
5900;SDS011;2976;49.764;9.796;2022-11-20T12:26:00;15.83;;;8.50;;
5900;SDS011;2976;49.764;9.796;2022-11-20T12:34:10;18.73;;;8.93;;
5900;SDS011;2976;49.764;9.796;2022-11-20T12:36:56;18.63;;;9.30;;
5900;SDS011;2976;49.764;9.796;2022-11-20T12:39:43;18.60;;;10.00;;
5900;SDS011;2976;49.764;9.796;2022-11-20T12:48:18;17.40;;;9.50;;
5900;SDS011;2976;49.764;9.796;2022-11-20T12:53:47;17.80;;;10.13;;
5900;SDS011;2976;49.764;9.796;2022-11-20T12:56:57;20.50;;;9.10;;
5900;SDS011;2976;49.764;9.796;2022-11-20T13:08:11;23.43;;;9.10;;
5900;SDS011;2976;49.764;9.796;2022-11-20T13:11:23;15.53;;;8.47;;
5900;SDS011;2976;49.764;9.796;2022-11-20T13:14:03;16.93;;;8.63;;
5900;SDS011;2976;49.764;9.796;2022-11-20T13:19:29;16.90;;;8.17;;
5900;SDS011;2976;49.764;9.796;2022-11-20T13:21:55;17.00;;;9.00;;
5900;SDS011;2976;49.764;9.796;2022-11-20T13:29:34;13.20;;;7.33;;
5900;SDS011;2976;49.764;9.796;2022-11-20T13:32:06;16.63;;;7.83;;
5900;SDS011;2976;49.764;9.796;2022-11-20T13:34:38;15.97;;;7.73;;
5900;SDS011;2976;49.764;9.796;2022-11-20T13:37:04;15.73;;;8.63;;
5900;SDS011;2976;49.764;9.796;2022-11-20T13:42:01;17.73;;;8.97;;
5900;SDS011;2976;49.764;9.796;2022-11-20T13:44:50;12.83;;;6.90;;
5900;SDS011;2976;49.764;9.796;2022-11-20T13:47:20;18.80;;;8.63;;
5900;SDS011;2976;49.764;9.796;2022-11-20T13:49:51;16.97;;;8.07;;
5900;SDS011;2976;49.764;9.796;2022-11-20T13:55:13;18.63;;;9.37;;
5900;SDS011;2976;49.764;9.796;2022-11-20T14:00:57;13.60;;;8.37;;
5900;SDS011;2976;49.764;9.796;2022-11-20T14:03:44;15.67;;;7.67;;
5900;SDS011;2976;49.764;9.796;2022-11-20T14:06:21;13.50;;;8.50;;
5900;SDS011;2976;49.764;9.796;2022-11-20T14:08:53;12.00;;;7.43;;
5900;SDS011;2976;49.764;9.796;2022-11-20T14:14:00;14.50;;;8.20;;
5900;SDS011;2976;49.764;9.796;2022-11-20T14:16:38;14.77;;;8.47;;
5900;SDS011;2976;49.764;9.796;2022-11-20T14:21:44;18.60;;;9.33;;
5900;SDS011;2976;49.764;9.796;2022-11-20T14:24:17;17.13;;;8.27;;
5900;SDS011;2976;49.764;9.796;2022-11-20T14:26:45;20.67;;;9.43;;
5900;SDS011;2976;49.764;9.796;2022-11-20T14:29:14;16.30;;;9.10;;
5900;SDS011;2976;49.764;9.796;2022-11-20T14:31:42;16.63;;;8.20;;
5900;SDS011;2976;49.764;9.796;2022-11-20T14:34:15;19.37;;;9.63;;
5900;SDS011;2976;49.764;9.796;2022-11-20T14:36:44;14.60;;;8.10;;
5900;SDS011;2976;49.764;9.796;2022-11-20T14:39:22;19.50;;;9.10;;
5900;SDS011;2976;49.764;9.796;2022-11-20T14:41:54;16.50;;;9.10;;
5900;SDS011;2976;49.764;9.796;2022-11-20T14:44:20;14.93;;;7.83;;
5900;SDS011;2976;49.764;9.796;2022-11-20T14:46:50;14.90;;;7.73;;
5900;SDS011;2976;49.764;9.796;2022-11-20T14:49:17;16.67;;;8.07;;
5900;SDS011;2976;49.764;9.796;2022-11-20T14:51:43;13.40;;;6.80;;
5900;SDS011;2976;49.764;9.796;2022-11-20T14:54:19;15.30;;;8.60;;
5900;SDS011;2976;49.764;9.796;2022-11-20T14:59:49;18.47;;;9.10;;
5900;SDS011;2976;49.764;9.796;2022-11-20T15:02:15;17.13;;;8.70;;
5900;SDS011;2976;49.764;9.796;2022-11-20T15:04:56;13.40;;;8.00;;
5900;SDS011;2976;49.764;9.796;2022-11-20T15:07:31;13.50;;;7.20;;
5900;SDS011;2976;49.764;9.796;2022-11-20T15:10:03;14.87;;;7.80;;
5900;SDS011;2976;49.764;9.796;2022-11-20T15:12:32;17.20;;;9.20;;
5900;SDS011;2976;49.764;9.796;2022-11-20T15:15:03;13.07;;;7.63;;
5900;SDS011;2976;49.764;9.796;2022-11-20T15:17:30;13.17;;;8.00;;
5900;SDS011;2976;49.764;9.796;2022-11-20T15:19:57;13.83;;;8.00;;
5900;SDS011;2976;49.764;9.796;2022-11-20T15:22:24;16.00;;;10.17;;
5900;SDS011;2976;49.764;9.796;2022-11-20T15:24:50;16.07;;;9.17;;
5900;SDS011;2976;49.764;9.796;2022-11-20T15:27:15;27.93;;;13.60;;
5900;SDS011;2976;49.764;9.796;2022-11-20T15:29:41;30.27;;;17.17;;
5900;SDS011;2976;49.764;9.796;2022-11-20T15:32:08;30.60;;;18.10;;
5900;SDS011;2976;49.764;9.796;2022-11-20T15:34:33;34.80;;;19.70;;
5900;SDS011;2976;49.764;9.796;2022-11-20T15:36:59;39.87;;;22.10;;
5900;SDS011;2976;49.764;9.796;2022-11-20T15:39:25;63.20;;;37.60;;
5900;SDS011;2976;49.764;9.796;2022-11-20T15:41:50;77.73;;;38.70;;
5900;SDS011;2976;49.764;9.796;2022-11-20T15:44:16;94.47;;;48.53;;
5900;SDS011;2976;49.764;9.796;2022-11-20T15:46:41;52.27;;;27.57;;
5900;SDS011;2976;49.764;9.796;2022-11-20T15:49:10;34.30;;;17.20;;
5900;SDS011;2976;49.764;9.796;2022-11-20T15:51:43;27.57;;;14.20;;
5900;SDS011;2976;49.764;9.796;2022-11-20T15:54:15;34.83;;;15.70;;
5900;SDS011;2976;49.764;9.796;2022-11-20T15:56:44;26.37;;;13.97;;
5900;SDS011;2976;49.764;9.796;2022-11-20T15:59:11;50.40;;;22.40;;
5900;SDS011;2976;49.764;9.796;2022-11-20T16:01:37;73.53;;;41.13;;
5900;SDS011;2976;49.764;9.796;2022-11-20T16:04:04;109.30;;;52.27;;
5900;SDS011;2976;49.764;9.796;2022-11-20T16:06:33;68.17;;;36.97;;
5900;SDS011;2976;49.764;9.796;2022-11-20T16:08:59;47.93;;;28.27;;
5900;SDS011;2976;49.764;9.796;2022-11-20T16:11:24;44.97;;;23.77;;
5900;SDS011;2976;49.764;9.796;2022-11-20T16:13:50;41.77;;;24.60;;
5900;SDS011;2976;49.764;9.796;2022-11-20T16:16:35;50.07;;;25.73;;
5900;SDS011;2976;49.764;9.796;2022-11-20T16:19:02;65.63;;;29.73;;
5900;SDS011;2976;49.764;9.796;2022-11-20T16:21:28;60.10;;;26.63;;
5900;SDS011;2976;49.764;9.796;2022-11-20T16:23:58;45.27;;;23.60;;
5900;SDS011;2976;49.764;9.796;2022-11-20T16:26:25;48.93;;;25.23;;
5900;SDS011;2976;49.764;9.796;2022-11-20T16:28:50;48.13;;;23.23;;
5900;SDS011;2976;49.764;9.796;2022-11-20T16:31:16;47.13;;;23.87;;
5900;SDS011;2976;49.764;9.796;2022-11-20T16:33:48;82.80;;;31.80;;